Colgan, North Dakota
Current Conditions -  °F | °C
As of 3:15 PM on Tuesday 27 Jan 2015 (Local Time) from KD50 Reporting Station
Clear Clear  
Wind Chill: 44°   Ceiling: Unl
Heat Index: 46°   Visibility: 10mi
Dew Point: 39°   Wind: 6mph
Humidity: 76%   Direction: 270°W
Pressure: 29.79"   Gusts: NA
Location:  48.9471°N, 103.888°W
Report Text: KD50 272115Z AUTO 27005KT 10SM CLR 08/04 A2979 RMK AO2
Loading
Personal Weather Stations






























Interactive Weather Map New forecast layout! Learn more

10-Day Weather Forecast

Advertisements
Track Severe Weather on mobile